sensor_id;sensor_type;location;lat;lon;timestamp;pressure;altitude;pressure_sealevel;temperature;humidity
20105;BME280;10212;42.714;23.310;2023-03-23T00:06:28;95164.75;;;4.31;100.00
20105;BME280;10212;42.714;23.310;2023-03-23T00:16:32;95159.56;;;4.31;100.00
20105;BME280;10212;42.714;23.310;2023-03-23T00:26:33;95166.03;;;4.19;100.00
20105;BME280;10212;42.714;23.310;2023-03-23T00:36:34;95176.00;;;3.97;100.00
20105;BME280;10212;42.714;23.310;2023-03-23T00:46:35;95183.88;;;3.87;100.00
20105;BME280;10212;42.714;23.310;2023-03-23T00:56:44;95195.63;;;3.81;100.00
20105;BME280;10212;42.714;23.310;2023-03-23T01:06:44;95187.44;;;3.94;100.00
20105;BME280;10212;42.714;23.310;2023-03-23T01:16:50;95192.50;;;3.61;100.00
20105;BME280;10212;42.714;23.310;2023-03-23T01:26:51;95179.44;;;3.54;100.00
20105;BME280;10212;42.714;23.310;2023-03-23T01:36:51;95171.63;;;3.89;100.00
20105;BME280;10212;42.714;23.310;2023-03-23T01:46:51;95174.06;;;3.91;100.00
20105;BME280;10212;42.714;23.310;2023-03-23T01:57:02;95165.19;;;3.85;100.00
20105;BME280;10212;42.714;23.310;2023-03-23T02:07:03;95166.97;;;4.09;100.00
20105;BME280;10212;42.714;23.310;2023-03-23T02:28:07;95173.19;;;3.65;100.00
20105;BME280;10212;42.714;23.310;2023-03-23T02:37:52;95168.81;;;3.57;100.00
20105;BME280;10212;42.714;23.310;2023-03-23T02:47:53;95181.34;;;3.52;100.00
20105;BME280;10212;42.714;23.310;2023-03-23T02:57:53;95199.69;;;3.41;100.00
20105;BME280;10212;42.714;23.310;2023-03-23T03:18:00;95221.91;;;3.33;100.00
20105;BME280;10212;42.714;23.310;2023-03-23T03:28:03;95217.75;;;3.41;100.00
20105;BME280;10212;42.714;23.310;2023-03-23T03:38:07;95220.97;;;3.43;100.00
20105;BME280;10212;42.714;23.310;2023-03-23T03:48:08;95224.69;;;3.48;100.00
20105;BME280;10212;42.714;23.310;2023-03-23T03:58:09;95218.72;;;3.40;100.00
20105;BME280;10212;42.714;23.310;2023-03-23T04:08:09;95206.41;;;3.25;100.00
20105;BME280;10212;42.714;23.310;2023-03-23T04:18:10;95222.59;;;3.09;100.00
20105;BME280;10212;42.714;23.310;2023-03-23T04:28:11;95210.19;;;3.12;100.00
20105;BME280;10212;42.714;23.310;2023-03-23T04:38:12;95227.22;;;3.05;100.00
20105;BME280;10212;42.714;23.310;2023-03-23T04:48:13;95224.66;;;3.05;100.00
20105;BME280;10212;42.714;23.310;2023-03-23T04:58:16;95234.22;;;3.13;100.00
20105;BME280;10212;42.714;23.310;2023-03-23T05:08:17;95250.16;;;3.17;100.00
20105;BME280;10212;42.714;23.310;2023-03-23T05:18:17;95254.00;;;3.12;100.00
20105;BME280;10212;42.714;23.310;2023-03-23T05:28:20;95261.75;;;3.12;100.00
20105;BME280;10212;42.714;23.310;2023-03-23T05:38:22;95262.88;;;3.45;100.00
20105;BME280;10212;42.714;23.310;2023-03-23T05:48:22;95275.16;;;3.51;100.00
20105;BME280;10212;42.714;23.310;2023-03-23T05:58:22;95280.97;;;3.53;100.00
20105;BME280;10212;42.714;23.310;2023-03-23T06:08:23;95280.09;;;3.79;100.00
20105;BME280;10212;42.714;23.310;2023-03-23T06:18:24;95289.59;;;3.79;100.00
20105;BME280;10212;42.714;23.310;2023-03-23T06:28:24;95274.94;;;4.22;100.00
20105;BME280;10212;42.714;23.310;2023-03-23T06:38:25;95277.69;;;4.38;100.00
20105;BME280;10212;42.714;23.310;2023-03-23T06:48:26;95286.13;;;4.90;100.00
20105;BME280;10212;42.714;23.310;2023-03-23T06:58:26;95293.50;;;5.26;100.00
20105;BME280;10212;42.714;23.310;2023-03-23T07:08:27;95291.41;;;5.78;100.00
20105;BME280;10212;42.714;23.310;2023-03-23T07:18:27;95280.56;;;6.23;100.00
20105;BME280;10212;42.714;23.310;2023-03-23T07:28:27;95286.38;;;6.57;100.00
20105;BME280;10212;42.714;23.310;2023-03-23T07:38:28;95288.06;;;7.12;99.82
20105;BME280;10212;42.714;23.310;2023-03-23T07:48:28;95293.19;;;7.35;96.55
20105;BME280;10212;42.714;23.310;2023-03-23T07:58:28;95285.16;;;7.76;96.23
20105;BME280;10212;42.714;23.310;2023-03-23T08:08:29;95291.41;;;8.33;93.71
20105;BME280;10212;42.714;23.310;2023-03-23T08:18:30;95294.47;;;8.81;89.83
20105;BME280;10212;42.714;23.310;2023-03-23T08:28:31;95288.41;;;9.18;87.61
20105;BME280;10212;42.714;23.310;2023-03-23T08:38:31;95278.03;;;9.53;81.02
20105;BME280;10212;42.714;23.310;2023-03-23T08:48:32;95271.59;;;9.91;78.53
20105;BME280;10212;42.714;23.310;2023-03-23T08:58:34;95272.38;;;10.47;75.38
20105;BME280;10212;42.714;23.310;2023-03-23T09:08:34;95274.28;;;10.88;69.38
20105;BME280;10212;42.714;23.310;2023-03-23T09:18:35;95273.44;;;11.07;65.05
20105;BME280;10212;42.714;23.310;2023-03-23T09:28:36;95261.00;;;11.37;65.44
20105;BME280;10212;42.714;23.310;2023-03-23T09:38:36;95253.28;;;11.69;63.97
20105;BME280;10212;42.714;23.310;2023-03-23T09:58:51;95245.63;;;11.74;62.11
20105;BME280;10212;42.714;23.310;2023-03-23T10:08:54;95244.03;;;11.73;62.40
20105;BME280;10212;42.714;23.310;2023-03-23T10:19:18;95240.50;;;12.00;59.95
20105;BME280;10212;42.714;23.310;2023-03-23T10:39:21;95223.41;;;12.11;60.46
20105;BME280;10212;42.714;23.310;2023-03-23T10:49:25;95222.19;;;12.46;59.90
20105;BME280;10212;42.714;23.310;2023-03-23T10:59:27;95210.72;;;12.47;59.88
20105;BME280;10212;42.714;23.310;2023-03-23T11:09:38;95201.97;;;12.60;59.90
20105;BME280;10212;42.714;23.310;2023-03-23T11:19:38;95196.31;;;12.88;57.65
20105;BME280;10212;42.714;23.310;2023-03-23T11:29:47;95186.53;;;13.02;56.38
20105;BME280;10212;42.714;23.310;2023-03-23T11:39:55;95170.44;;;13.24;55.49
20105;BME280;10212;42.714;23.310;2023-03-23T11:49:58;95164.16;;;13.44;55.61
20105;BME280;10212;42.714;23.310;2023-03-23T12:00:00;95156.00;;;13.34;55.67
20105;BME280;10212;42.714;23.310;2023-03-23T12:40:48;95126.31;;;13.78;53.38
20105;BME280;10212;42.714;23.310;2023-03-23T13:11:10;95100.25;;;14.38;53.04
20105;BME280;10212;42.714;23.310;2023-03-23T13:21:18;95100.44;;;14.24;52.24
20105;BME280;10212;42.714;23.310;2023-03-23T13:31:21;95092.78;;;14.22;51.76
20105;BME280;10212;42.714;23.310;2023-03-23T13:41:30;95081.41;;;14.29;53.04
20105;BME280;10212;42.714;23.310;2023-03-23T14:01:32;95079.72;;;14.46;50.41
20105;BME280;10212;42.714;23.310;2023-03-23T14:11:44;95067.53;;;14.64;51.87
20105;BME280;10212;42.714;23.310;2023-03-23T14:21:50;95059.88;;;14.63;49.74
20105;BME280;10212;42.714;23.310;2023-03-23T14:31:55;95062.81;;;15.43;49.47
20105;BME280;10212;42.714;23.310;2023-03-23T14:41:56;95061.50;;;15.58;48.73
20105;BME280;10212;42.714;23.310;2023-03-23T14:52:03;95059.38;;;15.43;48.74
20105;BME280;10212;42.714;23.310;2023-03-23T15:02:04;95057.28;;;15.28;50.12
20105;BME280;10212;42.714;23.310;2023-03-23T15:12:05;95047.25;;;15.13;50.54
20105;BME280;10212;42.714;23.310;2023-03-23T15:22:23;95043.84;;;15.12;49.72
20105;BME280;10212;42.714;23.310;2023-03-23T15:42:31;95059.41;;;14.30;53.56
20105;BME280;10212;42.714;23.310;2023-03-23T15:52:31;95063.94;;;13.98;54.88
20105;BME280;10212;42.714;23.310;2023-03-23T16:02:32;95066.22;;;13.64;56.26
20105;BME280;10212;42.714;23.310;2023-03-23T16:12:34;95068.59;;;13.35;57.48
20105;BME280;10212;42.714;23.310;2023-03-23T16:22:34;95079.88;;;12.98;58.66
20105;BME280;10212;42.714;23.310;2023-03-23T16:32:34;95080.50;;;12.56;59.69
20105;BME280;10212;42.714;23.310;2023-03-23T16:42:35;95095.13;;;12.12;61.43
20105;BME280;10212;42.714;23.310;2023-03-23T16:52:35;95091.91;;;11.78;62.69
20105;BME280;10212;42.714;23.310;2023-03-23T17:02:36;95085.34;;;11.62;63.55
20105;BME280;10212;42.714;23.310;2023-03-23T17:12:36;95099.88;;;11.51;63.74
20105;BME280;10212;42.714;23.310;2023-03-23T17:22:37;95101.97;;;11.28;64.45
20105;BME280;10212;42.714;23.310;2023-03-23T17:32:37;95107.84;;;11.10;65.23
20105;BME280;10212;42.714;23.310;2023-03-23T17:42:38;95130.97;;;10.86;65.70
20105;BME280;10212;42.714;23.310;2023-03-23T17:52:39;95143.84;;;10.74;66.27
20105;BME280;10212;42.714;23.310;2023-03-23T18:02:40;95149.06;;;10.54;67.75
20105;BME280;10212;42.714;23.310;2023-03-23T18:12:41;95151.22;;;10.36;68.70
20105;BME280;10212;42.714;23.310;2023-03-23T18:22:41;95163.88;;;10.40;67.63
20105;BME280;10212;42.714;23.310;2023-03-23T18:32:41;95167.47;;;10.38;67.44
20105;BME280;10212;42.714;23.310;2023-03-23T18:42:42;95179.28;;;10.21;67.96
20105;BME280;10212;42.714;23.310;2023-03-23T18:52:44;95198.31;;;10.01;68.88
20105;BME280;10212;42.714;23.310;2023-03-23T19:02:44;95197.41;;;9.80;69.54
20105;BME280;10212;42.714;23.310;2023-03-23T19:12:48;95208.97;;;9.64;69.80
20105;BME280;10212;42.714;23.310;2023-03-23T19:22:51;95218.69;;;9.41;69.99
20105;BME280;10212;42.714;23.310;2023-03-23T19:32:52;95226.69;;;9.11;73.13
20105;BME280;10212;42.714;23.310;2023-03-23T19:42:52;95250.13;;;8.61;76.68
20105;BME280;10212;42.714;23.310;2023-03-23T19:52:52;95270.38;;;8.28;79.50
20105;BME280;10212;42.714;23.310;2023-03-23T20:02:53;95280.28;;;8.03;81.38
20105;BME280;10212;42.714;23.310;2023-03-23T20:12:53;95280.47;;;7.86;83.90
20105;BME280;10212;42.714;23.310;2023-03-23T20:22:54;95284.34;;;7.90;85.88
20105;BME280;10212;42.714;23.310;2023-03-23T20:32:54;95287.44;;;7.86;87.59
20105;BME280;10212;42.714;23.310;2023-03-23T20:42:59;95288.19;;;7.79;88.01
20105;BME280;10212;42.714;23.310;2023-03-23T20:53:00;95288.44;;;7.69;89.04
20105;BME280;10212;42.714;23.310;2023-03-23T21:03:01;95284.72;;;7.57;89.35
20105;BME280;10212;42.714;23.310;2023-03-23T21:13:02;95293.28;;;7.42;90.56
20105;BME280;10212;42.714;23.310;2023-03-23T21:23:03;95290.31;;;7.30;91.42
20105;BME280;10212;42.714;23.310;2023-03-23T21:33:04;95279.22;;;7.21;92.39
20105;BME280;10212;42.714;23.310;2023-03-23T21:43:05;95286.44;;;7.11;93.44
20105;BME280;10212;42.714;23.310;2023-03-23T21:53:05;95285.88;;;7.00;94.59
20105;BME280;10212;42.714;23.310;2023-03-23T22:03:05;95299.47;;;7.03;94.13
20105;BME280;10212;42.714;23.310;2023-03-23T22:13:06;95289.44;;;6.99;94.20
20105;BME280;10212;42.714;23.310;2023-03-23T22:23:06;95298.53;;;6.95;95.22
20105;BME280;10212;42.714;23.310;2023-03-23T22:33:07;95301.97;;;6.96;95.47
20105;BME280;10212;42.714;23.310;2023-03-23T22:43:07;95313.88;;;6.82;96.33
20105;BME280;10212;42.714;23.310;2023-03-23T22:53:07;95318.84;;;6.68;96.74
20105;BME280;10212;42.714;23.310;2023-03-23T23:03:08;95311.34;;;6.50;98.02
20105;BME280;10212;42.714;23.310;2023-03-23T23:13:09;95303.53;;;6.26;98.96
20105;BME280;10212;42.714;23.310;2023-03-23T23:23:10;95306.22;;;6.10;100.00
20105;BME280;10212;42.714;23.310;2023-03-23T23:33:10;95299.25;;;6.02;100.00
20105;BME280;10212;42.714;23.310;2023-03-23T23:43:11;95295.56;;;5.96;100.00
20105;BME280;10212;42.714;23.310;2023-03-23T23:53:12;95281.84;;;5.87;100.00
